createdAt,value
2022-09-30T16:14:40.126Z,57.07
2022-09-30T16:17:15.402Z,57.46
2022-09-30T16:19:42.993Z,57.20
2022-09-30T16:22:32.069Z,57.81
2022-09-30T16:25:04.005Z,58.02
2022-09-30T16:27:31.409Z,58.73
2022-09-30T16:29:58.668Z,58.38
2022-09-30T16:32:25.742Z,58.37
2022-09-30T16:34:55.541Z,59.12
2022-09-30T16:37:22.163Z,58.70
2022-09-30T16:39:48.694Z,58.67
2022-09-30T16:42:16.849Z,59.34
2022-09-30T16:44:46.138Z,59.54
2022-09-30T16:47:15.169Z,59.66
2022-09-30T16:49:44.962Z,60.10
2022-09-30T16:52:11.463Z,60.43
2022-09-30T16:54:38.002Z,60.71
2022-09-30T16:57:04.490Z,60.81
2022-09-30T16:59:32.644Z,60.63
2022-09-30T17:02:00.857Z,61.52
2022-09-30T17:04:27.977Z,61.84
2022-09-30T17:06:57.474Z,62.25
2022-09-30T17:09:23.897Z,62.60
2022-09-30T17:11:53.195Z,62.95
2022-09-30T17:14:19.806Z,63.23
2022-09-30T17:16:46.781Z,63.66
2022-09-30T17:19:14.046Z,63.90
2022-09-30T17:21:40.597Z,64.05
2022-09-30T17:24:07.101Z,64.46
2022-09-30T17:26:34.329Z,64.35
2022-09-30T17:29:31.515Z,64.69
2022-09-30T17:31:47.485Z,65.40
2022-09-30T17:34:14.056Z,65.58
2022-09-30T17:36:44.117Z,65.50
2022-09-30T17:39:11.405Z,66.00
2022-09-30T17:41:56.544Z,65.74
2022-09-30T17:44:24.501Z,66.35
2022-09-30T17:47:00.256Z,66.59
2022-09-30T17:49:35.559Z,66.53
2022-09-30T17:52:02.545Z,66.82
2022-09-30T17:54:29.417Z,67.43
2022-09-30T17:56:57.316Z,67.77
2022-09-30T17:59:25.974Z,67.97
2022-09-30T18:01:53.465Z,68.01
2022-09-30T18:04:22.569Z,67.95
2022-09-30T18:06:48.995Z,68.28
2022-09-30T18:09:15.441Z,68.56
2022-09-30T18:11:43.636Z,68.87
2022-09-30T18:14:11.521Z,68.92
2022-09-30T18:16:38.462Z,69.28
2022-09-30T18:19:06.850Z,69.07
2022-09-30T18:21:37.437Z,69.06
2022-09-30T18:24:05.511Z,69.47
2022-09-30T18:26:33.539Z,69.72
2022-09-30T18:29:02.698Z,69.90
2022-09-30T18:31:34.543Z,69.91
2022-09-30T18:34:01.772Z,70.32
2022-09-30T18:36:35.203Z,70.48
2022-09-30T18:39:02.612Z,70.69
2022-09-30T18:41:31.834Z,70.72
2022-09-30T18:44:02.518Z,70.87
2022-09-30T18:46:30.330Z,71.16
2022-09-30T18:48:57.088Z,70.87
2022-09-30T18:51:24.964Z,71.58
2022-09-30T18:53:55.948Z,71.43
2022-09-30T18:56:23.438Z,71.36
2022-09-30T18:58:51.577Z,71.50
2022-09-30T19:01:18.554Z,71.92
2022-09-30T19:03:45.248Z,71.92
2022-09-30T19:06:11.746Z,71.83
2022-09-30T19:08:38.301Z,71.86
2022-09-30T19:11:14.686Z,72.29
2022-09-30T19:13:47.850Z,72.57
2022-09-30T19:16:18.728Z,73.49
2022-09-30T19:18:46.432Z,72.68
2022-09-30T19:21:16.182Z,72.75
2022-09-30T19:23:42.690Z,72.86
2022-09-30T19:26:10.891Z,73.20
2022-09-30T19:28:38.281Z,73.29
2022-09-30T19:31:17.134Z,73.31
2022-09-30T19:33:55.851Z,73.42
2022-09-30T19:36:24.733Z,73.66
2022-09-30T19:38:57.877Z,73.70
2022-09-30T19:41:32.357Z,73.65
2022-09-30T19:44:02.675Z,73.88
2022-09-30T19:46:29.650Z,73.94
2022-09-30T19:48:56.465Z,74.03
2022-09-30T19:51:23.313Z,74.17
2022-09-30T19:54:03.955Z,74.39
2022-09-30T19:56:33.595Z,75.05
2022-09-30T19:59:00.228Z,74.38
2022-09-30T20:01:31.375Z,74.88
2022-09-30T20:04:04.765Z,75.04
2022-09-30T20:06:32.631Z,74.86
2022-09-30T20:09:00.906Z,75.08
2022-09-30T20:11:29.934Z,75.01
2022-09-30T20:14:15.861Z,74.88
2022-09-30T20:17:18.297Z,75.51
2022-09-30T20:23:04.728Z,74.92
2022-09-30T20:28:25.781Z,75.30
2022-09-30T20:30:55.349Z,75.81
2022-09-30T20:33:30.698Z,75.44
2022-09-30T20:36:24.887Z,75.86
2022-09-30T20:39:14.356Z,75.40
2022-09-30T20:44:57.509Z,76.39
2022-09-30T20:47:39.505Z,75.59
2022-09-30T20:50:38.213Z,76.23
2022-09-30T20:53:16.848Z,77.03
2022-09-30T20:55:56.445Z,76.32
2022-09-30T21:08:35.657Z,76.35
2022-09-30T21:11:22.785Z,77.38
2022-09-30T21:13:58.725Z,76.79
2022-09-30T21:16:29.586Z,76.96
2022-09-30T21:19:07.788Z,77.09
2022-09-30T21:21:39.626Z,77.71
2022-09-30T21:24:35.883Z,77.45
2022-09-30T21:30:40.334Z,76.90
2022-09-30T21:33:12.404Z,77.05
2022-09-30T21:35:45.383Z,77.82
2022-09-30T21:38:28.696Z,76.75
2022-09-30T21:41:10.919Z,78.05
2022-09-30T21:43:52.405Z,78.06
2022-09-30T21:46:19.056Z,77.26
2022-09-30T21:48:46.031Z,77.52
2022-09-30T21:51:13.950Z,77.27
2022-09-30T21:53:41.271Z,77.77
2022-09-30T21:56:11.519Z,77.31
2022-09-30T21:58:38.538Z,78.06
2022-09-30T22:01:06.988Z,77.82
2022-09-30T22:03:37.822Z,77.62
2022-09-30T22:06:07.329Z,77.45
2022-09-30T22:08:36.411Z,77.70
2022-09-30T22:11:06.830Z,78.11
2022-09-30T22:13:33.357Z,77.74
2022-09-30T22:16:05.340Z,77.81
2022-09-30T22:18:32.906Z,77.75
2022-09-30T22:21:06.249Z,77.22
2022-09-30T22:23:32.785Z,77.79
2022-09-30T22:26:07.563Z,77.58
2022-09-30T22:28:34.600Z,77.90
2022-09-30T22:31:18.638Z,78.00
2022-09-30T22:34:08.919Z,77.97
2022-09-30T22:36:54.267Z,77.50
2022-09-30T22:39:22.071Z,78.00
2022-09-30T22:41:55.411Z,77.41
2022-09-30T22:44:25.523Z,77.94
2022-09-30T22:46:53.479Z,78.11
2022-09-30T22:49:20.669Z,78.07
2022-09-30T22:51:55.719Z,77.58
2022-09-30T22:54:24.099Z,78.01
2022-09-30T22:56:50.664Z,77.47
2022-09-30T22:59:20.751Z,77.94
2022-09-30T23:01:49.226Z,78.67
2022-09-30T23:04:17.350Z,78.73
2022-09-30T23:06:48.683Z,78.57
2022-09-30T23:09:16.310Z,78.04
2022-09-30T23:11:45.298Z,78.76
2022-09-30T23:14:12.317Z,79.22
2022-09-30T23:16:42.859Z,79.28
2022-09-30T23:19:12.666Z,79.31
2022-09-30T23:21:48.527Z,79.36
2022-09-30T23:24:25.176Z,79.14
2022-09-30T23:27:26.117Z,79.57
2022-09-30T23:29:52.648Z,79.52
2022-09-30T23:32:19.171Z,79.46
2022-09-30T23:34:45.583Z,79.94
2022-09-30T23:37:12.039Z,79.83
2022-09-30T23:39:38.473Z,79.99
2022-09-30T23:42:05.001Z,80.00
2022-09-30T23:44:31.448Z,79.96
2022-09-30T23:47:16.530Z,79.96
2022-09-30T23:49:43.288Z,79.92
2022-09-30T23:52:13.122Z,79.92
2022-09-30T23:54:41.258Z,80.38
2022-09-30T23:57:08.253Z,80.35
2022-09-30T23:59:34.658Z,80.26
